Time;durP1;ratioP1;P1;durP2;ratioP2;P2;SDS_P1;SDS_P2;PMS_P1;PMS_P2;Temp;Humidity;BMP_temperature;BMP_pressure;BME280_temperature;BME280_humidity;BME280_pressure;Samples;Min_cycle;Max_cycle;Signal;HPM_P1;HPM_P2
2023/07/06 00:00:00;;;;;;;9.98;4.00;;;13.50;99.90;;;;;;5045404;28;20047;-72
2023/07/06 00:02:26;;;;;;;10.73;4.13;;;13.40;99.90;;;;;;5046601;28;20395;-72
2023/07/06 00:04:52;;;;;;;10.80;4.35;;;13.40;99.90;;;;;;5046667;28;20033;-71
2023/07/06 00:07:21;;;;;;;10.25;4.57;;;13.50;99.90;;;;;;5046509;28;20475;-71
2023/07/06 00:09:48;;;;;;;8.45;3.63;;;13.50;99.90;;;;;;5046260;28;20037;-72
2023/07/06 00:12:15;;;;;;;10.38;4.10;;;13.40;99.90;;;;;;5028384;28;20033;-71
2023/07/06 00:14:40;;;;;;;13.10;5.18;;;13.40;99.90;;;;;;5045399;28;20437;-70
2023/07/06 00:17:16;;;;;;;9.65;4.30;;;13.40;99.90;;;;;;5046293;28;20021;-71
2023/07/06 00:19:42;;;;;;;9.05;4.28;;;13.30;99.90;;;;;;5046221;28;20079;-72
2023/07/06 00:22:09;;;;;;;11.63;4.50;;;13.40;99.90;;;;;;5045026;28;20367;-72
2023/07/06 00:24:36;;;;;;;14.40;4.10;;;13.40;99.90;;;;;;5046004;28;20029;-70
2023/07/06 00:27:01;;;;;;;9.00;4.13;;;13.40;99.90;;;;;;5044670;28;20025;-73
2023/07/06 00:29:33;;;;;;;12.65;4.30;;;13.40;99.90;;;;;;5044588;28;20032;-72
2023/07/06 00:32:27;;;;;;;11.77;4.70;;;13.40;99.90;;;;;;5045991;28;20017;-71
2023/07/06 00:34:45;;;;;;;8.35;4.82;;;13.30;99.90;;;;;;5045563;28;20091;-71
2023/07/06 00:37:12;;;;;;;9.80;4.40;;;13.30;99.90;;;;;;5045890;28;20101;-71
2023/07/06 00:39:38;;;;;;;14.00;4.63;;;13.30;99.90;;;;;;5045443;28;20101;-71
2023/07/06 00:42:05;;;;;;;9.93;4.70;;;13.30;99.90;;;;;;5045814;28;20332;-71
2023/07/06 00:44:49;;;;;;;9.70;4.80;;;13.30;99.90;;;;;;5045899;28;20028;-70
2023/07/06 00:47:16;;;;;;;8.95;3.30;;;13.20;99.90;;;;;;5028130;28;20084;-69
2023/07/06 00:49:42;;;;;;;10.20;4.47;;;13.30;99.90;;;;;;5045651;28;20022;-69
2023/07/06 00:52:08;;;;;;;16.00;4.97;;;13.20;99.90;;;;;;5045694;28;20089;-72
2023/07/06 00:54:37;;;;;;;11.73;4.10;;;13.20;99.90;;;;;;5027670;28;20429;-71
2023/07/06 00:57:04;;;;;;;13.88;4.75;;;13.20;99.90;;;;;;5045724;28;20435;-71
2023/07/06 00:59:33;;;;;;;8.18;4.43;;;13.20;99.90;;;;;;5045495;28;20026;-71
2023/07/06 01:01:59;;;;;;;11.77;4.68;;;13.30;99.90;;;;;;5045853;28;20052;-71
2023/07/06 01:04:26;;;;;;;12.23;5.40;;;13.00;99.90;;;;;;5045763;28;20029;-72
2023/07/06 01:06:54;;;;;;;12.70;5.07;;;13.10;99.90;;;;;;5045387;28;20025;-71
2023/07/06 01:09:21;;;;;;;11.57;4.80;;;13.10;99.90;;;;;;5045391;28;20034;-70
2023/07/06 01:11:47;;;;;;;9.73;5.00;;;13.10;99.90;;;;;;5045359;28;20080;-71
2023/07/06 01:14:14;;;;;;;15.35;5.50;;;13.00;99.90;;;;;;5027392;28;20021;-70
2023/07/06 01:16:50;;;;;;;11.55;5.38;;;13.00;99.90;;;;;;5027467;28;20035;-71
2023/07/06 01:19:37;;;;;;;9.40;5.28;;;13.00;99.90;;;;;;5045195;28;20056;-70
2023/07/06 01:22:29;;;;;;;10.00;5.05;;;13.00;99.90;;;;;;5044824;28;20033;-70
2023/07/06 01:25:18;;;;;;;13.75;4.95;;;12.90;99.90;;;;;;5045392;28;20029;-72
2023/07/06 01:28:30;;;;;;;14.55;6.13;;;12.90;99.90;;;;;;5044739;28;20026;-71
2023/07/06 01:31:10;;;;;;;17.48;5.80;;;12.90;99.90;;;;;;5045126;28;20095;-72
2023/07/06 01:33:43;;;;;;;16.02;6.15;;;12.90;99.90;;;;;;5044891;28;20030;-72
2023/07/06 01:36:17;;;;;;;12.25;5.60;;;12.90;99.90;;;;;;5026655;28;20021;-71
2023/07/06 01:38:42;;;;;;;16.35;6.70;;;12.80;99.90;;;;;;5044952;28;20022;-72
2023/07/06 01:41:10;;;;;;;17.88;6.78;;;12.80;99.90;;;;;;5026795;28;20155;-71
2023/07/06 01:43:36;;;;;;;16.02;7.00;;;12.80;99.90;;;;;;5044812;28;20018;-70
2023/07/06 01:46:02;;;;;;;16.27;7.18;;;12.80;99.90;;;;;;5026875;28;20134;-69
2023/07/06 01:48:29;;;;;;;15.60;7.55;;;12.90;99.90;;;;;;5044645;28;20475;-73
2023/07/06 01:51:09;;;;;;;21.30;8.13;;;12.70;99.90;;;;;;5044651;28;20057;-72
2023/07/06 01:53:46;;;;;;;12.50;7.72;;;12.70;99.90;;;;;;5044566;28;20034;-71
2023/07/06 01:56:19;;;;;;;16.60;8.48;;;12.70;99.90;;;;;;5044452;28;20030;-71
2023/07/06 01:58:55;;;;;;;19.35;9.18;;;12.70;99.90;;;;;;5026720;28;20060;-70
2023/07/06 02:01:30;;;;;;;18.35;8.63;;;12.70;99.90;;;;;;5044673;28;20025;-71
2023/07/06 02:03:56;;;;;;;19.27;8.73;;;12.70;99.90;;;;;;5026573;28;20032;-72
2023/07/06 02:06:22;;;;;;;15.70;8.00;;;12.60;99.90;;;;;;5044698;28;20855;-70
2023/07/06 02:08:49;;;;;;;17.83;9.30;;;12.60;99.90;;;;;;5044114;28;20056;-72
2023/07/06 02:11:18;;;;;;;17.52;8.88;;;12.60;99.90;;;;;;5044207;28;20446;-71
2023/07/06 02:13:43;;;;;;;23.90;9.55;;;12.60;99.90;;;;;;5044584;28;20051;-71
2023/07/06 02:16:09;;;;;;;19.27;9.63;;;12.60;99.90;;;;;;5044057;28;20134;-71
2023/07/06 02:18:35;;;;;;;24.52;9.77;;;12.60;99.90;;;;;;5026361;28;20117;-71
2023/07/06 02:21:01;;;;;;;16.23;9.05;;;12.60;99.90;;;;;;5044386;28;20054;-71
2023/07/06 02:23:28;;;;;;;16.65;9.10;;;12.60;99.90;;;;;;5044133;28;20036;-71
2023/07/06 02:25:54;;;;;;;23.10;9.57;;;12.60;99.90;;;;;;5044285;28;20052;-73
2023/07/06 02:28:23;;;;;;;21.42;9.77;;;12.60;99.90;;;;;;5044494;28;20021;-69
2023/07/06 02:30:50;;;;;;;17.13;10.07;;;12.60;99.90;;;;;;5043879;28;20088;-71
2023/07/06 02:33:16;;;;;;;16.95;9.55;;;12.60;99.90;;;;;;5044445;28;20029;-71
2023/07/06 02:35:46;;;;;;;21.58;10.02;;;12.60;99.90;;;;;;5044044;28;20084;-71
2023/07/06 02:38:16;;;;;;;21.05;9.38;;;12.50;99.90;;;;;;5045691;28;20213;-72
2023/07/06 02:40:42;;;;;;;19.88;10.02;;;12.50;99.90;;;;;;5048054;28;20055;-74
2023/07/06 02:43:08;;;;;;;18.63;9.30;;;12.60;99.90;;;;;;5048223;28;20049;-69
2023/07/06 02:45:34;;;;;;;20.38;10.02;;;12.50;99.90;;;;;;5047992;28;20029;-71
2023/07/06 02:48:00;;;;;;;18.77;9.65;;;12.50;99.90;;;;;;5030436;28;20026;-71
2023/07/06 02:50:29;;;;;;;18.30;9.38;;;12.50;99.90;;;;;;5048078;28;20048;-73
2023/07/06 02:52:55;;;;;;;20.92;10.43;;;12.50;99.90;;;;;;5029868;28;20052;-71
2023/07/06 02:55:22;;;;;;;17.15;9.60;;;12.50;99.90;;;;;;5048142;28;20029;-71
2023/07/06 02:57:47;;;;;;;19.20;9.98;;;12.50;99.90;;;;;;5047527;28;20026;-71
2023/07/06 03:00:14;;;;;;;19.60;9.43;;;12.50;99.90;;;;;;5047695;28;20759;-72
2023/07/06 03:02:40;;;;;;;18.52;9.57;;;12.50;99.90;;;;;;5047876;28;20022;-72
2023/07/06 03:05:07;;;;;;;18.38;9.88;;;12.50;99.90;;;;;;5047543;28;20025;-71
2023/07/06 03:07:35;;;;;;;19.33;9.45;;;12.50;99.90;;;;;;5047514;28;20021;-72
2023/07/06 03:10:08;;;;;;;18.67;10.23;;;12.50;99.90;;;;;;5047612;28;20493;-72
2023/07/06 03:12:38;;;;;;;17.83;10.38;;;12.50;99.90;;;;;;5047311;28;20037;-72
2023/07/06 03:15:10;;;;;;;19.48;9.43;;;12.40;99.90;;;;;;5029935;28;20036;-72
2023/07/06 03:17:36;;;;;;;20.50;10.85;;;12.40;99.90;;;;;;5047580;28;20017;-71
2023/07/06 03:20:13;;;;;;;23.58;10.80;;;12.40;99.90;;;;;;5029341;28;20033;-69
2023/07/06 03:22:38;;;;;;;20.45;9.95;;;12.40;99.90;;;;;;5047600;28;20026;-71
2023/07/06 03:25:05;;;;;;;19.27;10.93;;;12.40;99.90;;;;;;5047121;28;20024;-70
2023/07/06 03:27:31;;;;;;;22.30;10.15;;;12.40;99.90;;;;;;5047356;28;20442;-72
2023/07/06 03:29:57;;;;;;;19.08;10.02;;;12.40;99.90;;;;;;5046930;28;20033;-71
2023/07/06 03:32:23;;;;;;;21.52;11.40;;;12.40;99.90;;;;;;5029304;28;20367;-71
2023/07/06 03:34:49;;;;;;;20.75;10.52;;;12.40;99.90;;;;;;5046380;28;20032;-72
2023/07/06 03:37:15;;;;;;;18.15;10.43;;;12.40;99.90;;;;;;5046804;28;20029;-70
2023/07/06 03:39:41;;;;;;;18.95;10.38;;;12.40;99.90;;;;;;5046704;28;20060;-71
2023/07/06 03:42:08;;;;;;;21.52;10.88;;;12.40;99.90;;;;;;5029999;28;20026;-70
2023/07/06 03:44:33;;;;;;;17.90;10.32;;;12.40;99.90;;;;;;5047013;28;20026;-71
2023/07/06 03:47:01;;;;;;;17.83;9.80;;;12.40;99.90;;;;;;5028973;28;20036;-69
2023/07/06 03:49:26;;;;;;;22.35;10.65;;;12.40;99.90;;;;;;5046722;28;20018;-70
2023/07/06 03:51:52;;;;;;;19.15;10.02;;;12.40;99.90;;;;;;5046808;28;20492;-70
2023/07/06 03:54:17;;;;;;;19.73;10.13;;;12.40;99.90;;;;;;5028760;28;20025;-71
2023/07/06 03:56:43;;;;;;;20.25;10.48;;;12.40;99.90;;;;;;5046788;28;20033;-70
2023/07/06 03:59:09;;;;;;;23.83;11.02;;;12.50;99.90;;;;;;5046532;28;20025;-69
2023/07/06 04:01:36;;;;;;;19.27;10.63;;;12.40;99.90;;;;;;5046359;28;20029;-69
2023/07/06 04:04:05;;;;;;;21.27;10.40;;;12.50;99.90;;;;;;5046720;28;20485;-72
2023/07/06 04:06:31;;;;;;;26.48;10.80;;;12.50;99.90;;;;;;5045292;28;20029;-72
2023/07/06 04:08:59;;;;;;;23.23;10.40;;;12.50;99.90;;;;;;5046233;28;20052;-68
2023/07/06 04:11:25;;;;;;;20.20;10.63;;;12.50;99.90;;;;;;5046789;28;20045;-71
2023/07/06 04:13:57;;;;;;;22.85;11.02;;;12.50;99.90;;;;;;5028444;28;20529;-70
2023/07/06 04:16:23;;;;;;;20.02;10.77;;;12.50;99.90;;;;;;5046384;28;20071;-70
2023/07/06 04:18:48;;;;;;;23.13;10.25;;;12.50;99.90;;;;;;5046383;28;20025;-70
2023/07/06 04:21:19;;;;;;;22.02;10.48;;;12.50;99.90;;;;;;5045869;28;20036;-70
2023/07/06 04:23:48;;;;;;;17.48;10.70;;;12.60;99.90;;;;;;5046272;28;20060;-71
2023/07/06 04:26:14;;;;;;;18.05;9.95;;;12.60;99.90;;;;;;5046508;28;20079;-71
2023/07/06 04:28:40;;;;;;;22.77;10.25;;;12.60;99.90;;;;;;5045559;28;20105;-71
2023/07/06 04:31:06;;;;;;;18.52;10.35;;;12.70;99.90;;;;;;5046016;28;20105;-69
2023/07/06 04:33:32;;;;;;;18.30;11.05;;;12.70;99.90;;;;;;5046227;28;20029;-72
2023/07/06 04:35:57;;;;;;;19.52;10.77;;;12.80;99.90;;;;;;5046165;28;20022;-72
2023/07/06 04:38:29;;;;;;;19.67;10.10;;;12.80;99.90;;;;;;5046044;28;20025;-70
2023/07/06 04:40:55;;;;;;;24.38;11.40;;;12.80;99.90;;;;;;5045985;28;20490;-70
2023/07/06 04:43:21;;;;;;;20.90;11.35;;;12.90;99.90;;;;;;5045741;28;20026;-70
2023/07/06 04:45:47;;;;;;;19.52;11.02;;;12.90;99.90;;;;;;5045727;28;20026;-72
2023/07/06 04:48:12;;;;;;;18.90;9.77;;;12.90;99.90;;;;;;5045993;28;20056;-70
2023/07/06 04:50:38;;;;;;;20.05;9.88;;;13.00;99.90;;;;;;5044866;28;20112;-70
2023/07/06 04:53:07;;;;;;;18.45;10.30;;;13.00;99.90;;;;;;5045503;28;20022;-70
2023/07/06 04:55:34;;;;;;;21.00;10.77;;;13.10;99.90;;;;;;5045203;28;20029;-70
2023/07/06 04:58:00;;;;;;;23.10;10.00;;;13.00;99.90;;;;;;5044183;28;20026;-72
2023/07/06 05:00:31;;;;;;;19.48;10.25;;;13.20;99.90;;;;;;5044529;28;20034;-70
2023/07/06 05:03:00;;;;;;;20.90;10.65;;;13.20;99.90;;;;;;5044889;28;20474;-72
2023/07/06 05:05:32;;;;;;;17.75;9.98;;;13.20;99.90;;;;;;5044648;28;20052;-70
2023/07/06 05:07:58;;;;;;;21.52;11.00;;;13.30;99.90;;;;;;5033232;28;20442;-69
2023/07/06 05:10:26;;;;;;;21.73;10.70;;;13.40;99.90;;;;;;5045363;28;20037;-70
2023/07/06 05:12:52;;;;;;;20.23;10.65;;;13.40;99.90;;;;;;5045299;28;20033;-70
2023/07/06 05:15:18;;;;;;;20.05;10.32;;;13.50;99.90;;;;;;5027508;28;20417;-72
2023/07/06 05:17:43;;;;;;;19.63;10.13;;;13.50;99.90;;;;;;5045237;28;20033;-69
2023/07/06 05:20:14;;;;;;;20.50;10.05;;;13.50;99.90;;;;;;5044900;28;20029;-71
2023/07/06 05:22:47;;;;;;;15.95;9.30;;;13.60;99.90;;;;;;5044942;28;20104;-71
2023/07/06 05:25:12;;;;;;;15.55;9.25;;;13.70;99.90;;;;;;5044238;28;20033;-70
2023/07/06 05:27:38;;;;;;;16.52;9.88;;;13.70;99.90;;;;;;5026880;28;20033;-70
2023/07/06 05:30:05;;;;;;;21.23;9.85;;;13.80;99.90;;;;;;5044927;28;20029;-69
2023/07/06 05:32:30;;;;;;;20.13;9.80;;;13.80;99.90;;;;;;5044943;28;20037;-70
2023/07/06 05:34:56;;;;;;;18.80;9.50;;;13.80;99.90;;;;;;5027409;28;20520;-69
2023/07/06 05:37:22;;;;;;;14.20;9.07;;;13.80;99.90;;;;;;5027129;28;20122;-69
2023/07/06 05:39:48;;;;;;;21.45;10.23;;;13.90;99.90;;;;;;5043737;28;20053;-69
2023/07/06 05:42:14;;;;;;;15.77;9.27;;;13.80;99.90;;;;;;5044991;28;20031;-70
2023/07/06 05:44:39;;;;;;;18.55;9.05;;;13.80;99.90;;;;;;5044369;28;20053;-69
2023/07/06 05:47:07;;;;;;;16.73;8.88;;;13.90;99.90;;;;;;5044416;28;20104;-69
2023/07/06 05:49:33;;;;;;;16.70;9.45;;;13.90;99.90;;;;;;5044652;28;20021;-72
2023/07/06 05:51:59;;;;;;;16.85;9.25;;;13.90;99.90;;;;;;5044702;28;20034;-70
2023/07/06 05:54:24;;;;;;;21.58;10.25;;;13.90;99.90;;;;;;5044428;28;20033;-69
2023/07/06 05:56:50;;;;;;;18.95;9.38;;;13.90;99.90;;;;;;5044788;28;20033;-70
2023/07/06 05:59:16;;;;;;;18.65;9.68;;;14.00;99.90;;;;;;5044533;28;20056;-70
2023/07/06 06:01:42;;;;;;;16.17;8.73;;;14.00;99.90;;;;;;5026423;28;20040;-69
2023/07/06 06:04:07;;;;;;;17.88;9.45;;;14.10;99.90;;;;;;5044158;28;20089;-69
2023/07/06 06:06:47;;;;;;;15.40;8.52;;;14.10;99.90;;;;;;5044055;28;20037;-71
2023/07/06 06:09:13;;;;;;;16.60;8.88;;;14.20;99.90;;;;;;5044038;28;20026;-70
2023/07/06 06:11:39;;;;;;;15.48;9.48;;;14.30;99.90;;;;;;5043676;28;20037;-70
2023/07/06 06:14:05;;;;;;;16.90;8.75;;;14.30;99.90;;;;;;5043263;28;20030;-72
2023/07/06 06:16:32;;;;;;;15.52;8.88;;;14.40;99.90;;;;;;5044259;28;20096;-74
2023/07/06 06:18:58;;;;;;;13.60;8.73;;;14.40;99.90;;;;;;5044189;28;20025;-72
2023/07/06 06:21:24;;;;;;;14.52;8.82;;;14.50;99.90;;;;;;5044121;28;20112;-72
2023/07/06 06:23:49;;;;;;;17.73;8.63;;;14.50;99.90;;;;;;5043976;28;20359;-69
2023/07/06 06:26:15;;;;;;;14.50;7.97;;;14.70;99.90;;;;;;5044081;28;20025;-69
2023/07/06 06:28:41;;;;;;;15.57;8.70;;;14.70;99.90;;;;;;5057506;28;20079;-72
2023/07/06 06:31:08;;;;;;;16.75;8.40;;;14.70;99.90;;;;;;5046189;28;20041;-69
2023/07/06 06:33:33;;;;;;;13.25;8.50;;;14.70;99.90;;;;;;5045943;28;20386;-70
2023/07/06 06:36:00;;;;;;;15.05;8.77;;;14.70;99.90;;;;;;5064187;28;20026;-70
2023/07/06 06:38:26;;;;;;;16.67;8.52;;;14.90;99.90;;;;;;5064235;28;20108;-72
2023/07/06 06:40:51;;;;;;;14.98;8.68;;;14.90;99.90;;;;;;5063481;28;20067;-71
2023/07/06 06:43:18;;;;;;;14.85;8.90;;;15.00;99.90;;;;;;5064099;28;20029;-68
2023/07/06 06:45:43;;;;;;;18.30;8.80;;;15.10;99.90;;;;;;5064104;28;20025;-68
2023/07/06 06:48:09;;;;;;;13.13;8.00;;;15.10;99.90;;;;;;5045746;28;20025;-69
2023/07/06 06:50:34;;;;;;;13.02;7.45;;;15.30;99.90;;;;;;5045703;28;20041;-68
2023/07/06 06:53:00;;;;;;;15.13;7.72;;;15.40;99.90;;;;;;5063983;28;20056;-70
2023/07/06 06:55:25;;;;;;;14.32;8.02;;;15.60;99.90;;;;;;5063838;28;20056;-69
2023/07/06 06:57:52;;;;;;;17.23;8.45;;;15.70;99.90;;;;;;5064128;28;20489;-70
2023/07/06 07:00:18;;;;;;;16.55;7.70;;;15.90;99.90;;;;;;5063893;28;20029;-68
2023/07/06 07:02:44;;;;;;;14.63;7.97;;;16.00;99.90;;;;;;5063368;28;20776;-71
2023/07/06 07:05:12;;;;;;;12.70;7.60;;;16.00;99.90;;;;;;5063817;28;20025;-71
2023/07/06 07:07:41;;;;;;;16.13;7.70;;;16.10;99.90;;;;;;5063650;28;20028;-69
2023/07/06 07:10:09;;;;;;;13.23;7.90;;;16.10;99.90;;;;;;5063115;28;20033;-71
2023/07/06 07:12:36;;;;;;;13.90;7.40;;;16.10;99.90;;;;;;5045943;28;20084;-70
2023/07/06 07:15:02;;;;;;;14.13;7.20;;;16.00;99.90;;;;;;5046010;28;20025;-71
2023/07/06 07:17:27;;;;;;;13.15;7.90;;;16.10;99.90;;;;;;5063236;28;20032;-71
2023/07/06 07:19:53;;;;;;;14.52;7.97;;;16.10;99.90;;;;;;5063906;28;20029;-71
2023/07/06 07:22:18;;;;;;;21.42;8.27;;;16.10;99.90;;;;;;5045946;28;20021;-69
2023/07/06 07:24:44;;;;;;;14.23;7.55;;;16.10;99.90;;;;;;5065866;28;20025;-69
2023/07/06 07:27:11;;;;;;;15.50;8.20;;;16.00;99.90;;;;;;5067450;28;20076;-70
2023/07/06 07:29:36;;;;;;;14.43;8.65;;;16.10;99.90;;;;;;5067065;28;20032;-67
2023/07/06 07:32:02;;;;;;;15.73;8.85;;;16.10;99.90;;;;;;5067055;28;20036;-69
2023/07/06 07:34:28;;;;;;;21.50;8.85;;;16.20;99.90;;;;;;5067197;28;20013;-73
2023/07/06 07:36:54;;;;;;;14.00;8.10;;;16.20;99.90;;;;;;5067214;28;20056;-70
2023/07/06 07:39:19;;;;;;;14.45;7.75;;;16.30;99.90;;;;;;5066912;28;20057;-70
2023/07/06 07:41:45;;;;;;;14.32;8.45;;;16.30;99.90;;;;;;5067180;28;20025;-70
2023/07/06 07:44:11;;;;;;;14.95;8.13;;;16.40;99.90;;;;;;5066591;28;20036;-70
2023/07/06 07:46:37;;;;;;;16.42;8.43;;;16.50;99.90;;;;;;5066911;28;20052;-69
2023/07/06 07:49:02;;;;;;;18.55;7.97;;;16.50;99.90;;;;;;5066656;28;20035;-69
2023/07/06 07:51:29;;;;;;;19.45;8.48;;;16.70;99.90;;;;;;5066699;28;20040;-71
2023/07/06 07:53:56;;;;;;;17.73;8.43;;;16.70;99.90;;;;;;5066825;28;20531;-70
2023/07/06 07:56:24;;;;;;;12.00;7.32;;;16.80;99.90;;;;;;5066810;28;20056;-69
2023/07/06 07:58:50;;;;;;;15.27;7.15;;;16.90;99.90;;;;;;5048596;28;20045;-71
2023/07/06 08:01:24;;;;;;;13.27;7.72;;;17.00;99.90;;;;;;5066730;28;20047;-69
2023/07/06 08:03:51;;;;;;;;;;;17.10;99.90;;;;;;5066703;28;20025;-69
2023/07/06 08:06:18;;;;;;;16.98;7.07;;;17.10;99.90;;;;;;5066127;28;19954;-69
2023/07/06 08:08:44;;;;;;;12.38;6.22;;;17.00;99.90;;;;;;5066672;28;20017;-69
2023/07/06 08:11:13;;;;;;;16.80;7.30;;;17.10;99.90;;;;;;5066281;28;20041;-69
2023/07/06 08:13:39;;;;;;;16.35;7.00;;;17.00;99.90;;;;;;5047902;28;20033;-70
2023/07/06 08:16:05;;;;;;;14.50;6.88;;;16.90;99.90;;;;;;5046498;28;20026;-68
2023/07/06 08:18:31;;;;;;;18.02;7.43;;;17.00;99.90;;;;;;5028535;28;20021;-69
2023/07/06 08:20:58;;;;;;;14.90;7.88;;;17.00;99.90;;;;;;5046409;28;20037;-70
2023/07/06 08:23:26;;;;;;;16.30;7.38;;;17.10;99.90;;;;;;5046465;28;20068;-70
2023/07/06 08:25:52;;;;;;;11.65;6.88;;;17.10;99.90;;;;;;5046328;28;20474;-69
2023/07/06 08:28:31;;;;;;;11.02;5.88;;;17.30;99.90;;;;;;5046095;28;20026;-67
2023/07/06 08:31:01;;;;;;;12.73;6.60;;;17.40;99.90;;;;;;5045381;28;20088;-72
2023/07/06 08:33:27;;;;;;;14.35;6.88;;;17.40;99.90;;;;;;5045244;28;20030;-69
2023/07/06 08:35:53;;;;;;;16.13;7.18;;;17.50;99.90;;;;;;5044752;28;20625;-67
2023/07/06 08:38:19;;;;;;;15.55;6.88;;;17.60;99.90;;;;;;5045199;28;20033;-69
2023/07/06 08:40:48;;;;;;;15.65;6.03;;;17.70;99.90;;;;;;5042336;28;20045;-68
2023/07/06 08:43:24;;;;;;;13.82;6.40;;;17.80;99.90;;;;;;5044637;28;20018;-71
2023/07/06 08:46:00;;;;;;;11.73;6.15;;;17.90;99.90;;;;;;5038757;28;20085;-68
2023/07/06 08:48:27;;;;;;;10.45;5.22;;;18.00;99.90;;;;;;5038905;28;20026;-69
2023/07/06 08:51:00;;;;;;;9.75;4.78;;;18.10;99.90;;;;;;5043144;28;20101;-68
2023/07/06 08:53:33;;;;;;;7.72;3.80;;;18.20;99.90;;;;;;5032751;28;20033;-68
2023/07/06 08:56:01;;;;;;;8.05;3.88;;;18.40;99.90;;;;;;5042787;28;20041;-68
2023/07/06 08:58:33;;;;;;;9.95;4.70;;;18.60;99.90;;;;;;5008260;28;20379;-70
2023/07/06 09:01:13;;;;;;;9.60;4.03;;;18.70;99.90;;;;;;5026098;28;20398;-69
2023/07/06 09:03:48;;;;;;;8.82;4.38;;;18.70;99.90;;;;;;5045239;28;20034;-69
2023/07/06 09:06:20;;;;;;;8.65;3.80;;;18.60;99.90;;;;;;5027641;28;20060;-69
2023/07/06 09:08:48;;;;;;;7.55;3.53;;;18.60;99.90;;;;;;5045181;28;20052;-68
2023/07/06 09:11:14;;;;;;;8.68;3.17;;;18.60;99.90;;;;;;5045202;28;20034;-69
2023/07/06 09:13:49;;;;;;;7.55;2.97;;;18.50;99.90;;;;;;5045106;28;20029;-69
2023/07/06 09:16:19;;;;;;;5.60;2.50;;;18.50;99.90;;;;;;5045091;28;20025;-69
2023/07/06 09:18:45;;;;;;;10.73;2.80;;;18.50;99.90;;;;;;5045242;28;20569;-68
2023/07/06 09:21:11;;;;;;;4.85;3.05;;;18.80;99.90;;;;;;5043550;28;20059;-70
2023/07/06 09:23:37;;;;;;;6.25;2.70;;;19.00;99.90;;;;;;5045140;28;20021;-68
2023/07/06 09:26:07;;;;;;;7.75;3.50;;;19.20;99.90;;;;;;5038855;28;20025;-68
2023/07/06 09:28:33;;;;;;;5.00;2.80;;;19.20;99.90;;;;;;5035263;28;20037;-70
2023/07/06 09:31:20;;;;;;;7.85;2.88;;;19.20;99.90;;;;;;5034293;28;20437;-70
2023/07/06 09:33:48;;;;;;;7.78;3.08;;;19.10;99.90;;;;;;5044148;28;20037;-68
2023/07/06 09:36:19;;;;;;;6.22;3.53;;;19.00;99.90;;;;;;5044493;28;20099;-70
2023/07/06 09:38:46;;;;;;;8.18;3.55;;;18.90;99.90;;;;;;5044776;28;20026;-68
2023/07/06 09:41:23;;;;;;;5.57;2.85;;;18.80;99.90;;;;;;5041012;28;20037;-70
2023/07/06 09:43:57;;;;;;;6.22;2.95;;;18.60;99.90;;;;;;5040616;28;20055;-71
2023/07/06 09:46:26;;;;;;;7.70;3.25;;;18.50;99.90;;;;;;5043969;28;20026;-70
2023/07/06 09:48:52;;;;;;;4.82;2.80;;;18.30;99.90;;;;;;5044785;28;20035;-70
2023/07/06 09:51:25;;;;;;;8.85;4.30;;;18.10;99.90;;;;;;5044014;28;20042;-69
2023/07/06 09:54:00;;;;;;;9.05;4.10;;;18.00;99.90;;;;;;5025970;28;20025;-69
2023/07/06 09:56:29;;;;;;;8.90;4.15;;;17.90;99.90;;;;;;5043811;28;20048;-69
2023/07/06 09:58:55;;;;;;;11.05;4.22;;;17.80;99.90;;;;;;5036005;28;20040;-69
2023/07/06 10:01:43;;;;;;;7.30;3.90;;;17.70;99.90;;;;;;5043409;28;20093;-69
2023/07/06 10:04:29;;;;;;;8.18;4.25;;;17.60;99.90;;;;;;5025529;28;20037;-69
2023/07/06 10:07:15;;;;;;;7.22;4.30;;;17.60;99.90;;;;;;5043910;28;20079;-70
2023/07/06 10:09:54;;;;;;;11.63;4.00;;;17.60;99.90;;;;;;5034923;28;20093;-69
2023/07/06 10:12:45;;;;;;;10.60;4.68;;;17.80;99.90;;;;;;5044098;28;20565;-68
2023/07/06 10:15:37;;;;;;;12.43;5.70;;;18.00;99.90;;;;;;5044370;28;20029;-69
2023/07/06 10:18:19;;;;;;;9.05;4.20;;;18.50;99.90;;;;;;5043931;28;20033;-71
2023/07/06 10:21:30;;;;;;;10.23;5.03;;;18.70;99.90;;;;;;5044175;28;20049;-69
2023/07/06 10:24:39;;;;;;;9.95;5.15;;;18.80;99.90;;;;;;5044079;28;20072;-70
2023/07/06 10:27:10;;;;;;;9.45;5.20;;;18.80;99.90;;;;;;5044079;28;20025;-72
2023/07/06 10:29:41;;;;;;;11.45;4.93;;;18.70;99.90;;;;;;5044018;28;20033;-69
2023/07/06 10:32:30;;;;;;;13.27;5.22;;;18.80;99.90;;;;;;5042421;28;20453;-68
2023/07/06 10:35:09;;;;;;;11.18;5.45;;;18.90;99.90;;;;;;5044223;28;20037;-69
2023/07/06 10:37:35;;;;;;;11.57;5.60;;;19.10;99.90;;;;;;5042797;28;20018;-70
2023/07/06 10:40:23;;;;;;;11.60;5.03;;;19.10;99.90;;;;;;5043430;28;20081;-70
2023/07/06 10:43:07;;;;;;;11.90;4.78;;;19.00;99.90;;;;;;5044114;28;20025;-69
2023/07/06 10:45:32;;;;;;;12.50;4.80;;;19.00;99.90;;;;;;5043760;28;20029;-70
2023/07/06 10:48:10;;;;;;;9.68;4.88;;;19.00;99.90;;;;;;5043624;28;20040;-69
2023/07/06 10:50:49;;;;;;;7.50;4.50;;;19.00;99.90;;;;;;5043735;28;20098;-68
2023/07/06 10:53:23;;;;;;;12.88;4.72;;;19.10;99.90;;;;;;5026101;28;20036;-69
2023/07/06 10:56:03;;;;;;;8.75;4.70;;;19.30;99.90;;;;;;5043960;28;20056;-69
2023/07/06 10:58:34;;;;;;;12.75;5.28;;;19.40;99.90;;;;;;5044459;28;20386;-69
2023/07/06 11:01:07;;;;;;;8.98;5.45;;;19.50;99.90;;;;;;5047918;28;20034;-69
2023/07/06 11:03:32;;;;;;;13.65;5.57;;;19.60;99.90;;;;;;5047961;28;20030;-68
2023/07/06 11:06:14;;;;;;;13.93;5.28;;;19.60;99.90;;;;;;5047611;28;20027;-68
2023/07/06 11:09:03;;;;;;;11.55;6.20;;;19.80;99.90;;;;;;5047617;28;20065;-69
2023/07/06 11:11:32;;;;;;;12.45;5.63;;;19.90;99.90;;;;;;5047466;28;20040;-67
2023/07/06 11:14:35;;;;;;;10.32;5.80;;;19.90;99.90;;;;;;5047894;28;20025;-70
2023/07/06 11:17:10;;;;;;;7.32;4.22;;;19.90;99.90;;;;;;5047632;28;20435;-69
2023/07/06 11:19:51;;;;;;;6.03;3.50;;;20.00;99.90;;;;;;5047222;28;20029;-71
2023/07/06 11:22:21;;;;;;;12.27;3.45;;;20.20;99.90;;;;;;5047646;28;20053;-70
2023/07/06 11:24:55;;;;;;;10.25;4.40;;;20.30;99.90;;;;;;5047467;28;20036;-70
2023/07/06 11:27:31;;;;;;;11.25;5.30;;;20.50;99.90;;;;;;5047171;28;20028;-69
2023/07/06 11:30:39;;;;;;;8.38;5.00;;;20.50;99.90;;;;;;5029704;28;20107;-69
2023/07/06 11:33:35;;;;;;;13.43;4.57;;;20.60;99.90;;;;;;5028845;28;20029;-69
2023/07/06 11:36:08;;;;;;;14.00;5.38;;;20.70;99.90;;;;;;5047381;28;20115;-70
2023/07/06 11:39:15;;;;;;;10.38;5.15;;;20.70;99.90;;;;;;5047108;28;20032;-70
2023/07/06 11:41:53;;;;;;;12.80;5.57;;;20.80;99.90;;;;;;5046855;28;20124;-71
2023/07/06 11:44:40;;;;;;;14.95;5.45;;;21.00;99.90;;;;;;5047295;28;20025;-70
2023/07/06 11:47:16;;;;;;;11.80;5.07;;;21.20;99.90;;;;;;5046703;28;20060;-68
2023/07/06 11:49:56;;;;;;;9.10;5.10;;;21.40;99.90;;;;;;5046840;28;20502;-69
2023/07/06 11:52:25;;;;;;;10.45;4.35;;;21.50;99.90;;;;;;5047113;28;20057;-68
2023/07/06 11:55:15;;;;;;;10.18;4.32;;;21.70;99.90;;;;;;5046657;28;20026;-69
2023/07/06 11:58:05;;;;;;;12.48;5.00;;;21.80;99.90;;;;;;5046880;28;20030;-70
2023/07/06 12:03:03;;;;;;;10.13;4.85;;;21.20;99.90;;;;;;5046538;28;20037;-70
2023/07/06 12:06:03;;;;;;;10.45;4.35;;;21.00;99.90;;;;;;5028728;28;20437;-68
2023/07/06 12:08:36;;;;;;;8.60;4.50;;;20.70;99.90;;;;;;5025626;28;20036;-69
2023/07/06 12:11:14;;;;;;;6.70;3.72;;;20.50;99.90;;;;;;5046371;28;20041;-71
2023/07/06 12:13:42;;;;;;;13.10;4.57;;;20.40;99.90;;;;;;5046682;28;20026;-72
2023/07/06 12:16:20;;;;;;;7.90;4.00;;;20.30;99.90;;;;;;5045778;28;20104;-70
2023/07/06 12:18:53;;;;;;;5.97;3.70;;;20.30;99.90;;;;;;5046565;28;20014;-68
2023/07/06 12:21:31;;;;;;;11.10;4.60;;;20.30;99.90;;;;;;5046351;28;20026;-68
2023/07/06 12:24:05;;;;;;;7.15;4.25;;;20.30;99.90;;;;;;5046170;28;20036;-70
2023/07/06 12:26:31;;;;;;;7.18;3.63;;;20.30;99.90;;;;;;5046464;28;20089;-70
2023/07/06 12:28:58;;;;;;;8.45;4.40;;;20.20;99.90;;;;;;5046313;28;20029;-70
2023/07/06 12:31:26;;;;;;;7.10;3.97;;;20.10;99.90;;;;;;5046024;28;20057;-70
2023/07/06 12:33:56;;;;;;;8.45;3.70;;;20.10;99.90;;;;;;5046304;28;20029;-70
2023/07/06 12:36:24;;;;;;;9.43;4.18;;;20.00;99.90;;;;;;5045785;28;20037;-70
2023/07/06 12:38:54;;;;;;;5.55;3.67;;;20.00;99.90;;;;;;5046090;28;21204;-69
2023/07/06 12:41:20;;;;;;;5.82;3.22;;;19.80;99.90;;;;;;5046242;28;20033;-70
2023/07/06 12:43:46;;;;;;;9.77;3.50;;;19.80;99.90;;;;;;5045628;28;20080;-71
2023/07/06 12:46:13;;;;;;;7.32;3.45;;;19.90;99.90;;;;;;5045857;28;20041;-70
2023/07/06 12:48:51;;;;;;;6.53;3.03;;;19.80;99.90;;;;;;5045761;28;20356;-71
2023/07/06 12:51:21;;;;;;;7.95;3.35;;;19.80;99.90;;;;;;5045534;28;20041;-69
2023/07/06 12:53:49;;;;;;;6.28;2.92;;;19.70;99.90;;;;;;5045799;28;20093;-70
2023/07/06 12:56:19;;;;;;;8.60;3.50;;;19.70;99.90;;;;;;5045736;28;20057;-70